Time;durP1;ratioP1;P1;durP2;ratioP2;P2;SDS_P1;SDS_P2;PMS_P1;PMS_P2;Temp;Humidity;BMP_temperature;BMP_pressure;BME280_temperature;BME280_humidity;BME280_pressure;Samples;Min_cycle;Max_cycle;Signal;HPM_P1;HPM_P2
2022/11/22 00:00:09;;;;;;;11.63;6.20;;;;;;;;;;8351320;28;20024;-64
2022/11/22 00:04:09;;;;;;;6.65;5.00;;;;;;;;;;8346648;28;20020;-64
2022/11/22 00:08:09;;;;;;;13.60;5.10;;;;;;;;;;8351414;28;20116;-64
2022/11/22 00:12:09;;;;;;;7.63;5.13;;;;;;;;;;8352153;28;20282;-64
2022/11/22 00:16:09;;;;;;;26.47;5.67;;;;;;;;;;8354200;28;20055;-63
2022/11/22 00:20:10;;;;;;;75.70;7.60;;;;;;;;;;8351468;28;20270;-63
2022/11/22 00:24:11;;;;;;;311.35;17.52;;;;;;;;;;8361746;28;20032;-63
2022/11/22 00:28:12;;;;;;;77.80;8.27;;;;;;;;;;8355031;28;20102;-64
2022/11/22 00:32:12;;;;;;;215.98;15.65;;;;;;;;;;8352783;28;20457;-63
2022/11/22 00:36:12;;;;;;;26.45;9.43;;;;;;;;;;8351068;28;20016;-64
2022/11/22 00:40:12;;;;;;;12.10;5.78;;;;;;;;;;8357028;28;20029;-63
2022/11/22 00:44:13;;;;;;;9.60;4.13;;;;;;;;;;8353085;28;20058;-63
2022/11/22 00:48:13;;;;;;;3.67;2.47;;;;;;;;;;8356697;28;20047;-64
2022/11/22 00:52:13;;;;;;;0.90;0.90;;;;;;;;;;8356524;28;20028;-64
2022/11/22 00:56:13;;;;;;;1.07;0.73;;;;;;;;;;8360234;28;20023;-64
2022/11/22 01:00:14;;;;;;;0.83;0.70;;;;;;;;;;8363278;28;20353;-64
2022/11/22 01:04:14;;;;;;;0.80;0.80;;;;;;;;;;8355467;28;20273;-63
2022/11/22 01:08:14;;;;;;;1.60;1.10;;;;;;;;;;8359288;28;20032;-63
2022/11/22 01:12:15;;;;;;;0.80;0.80;;;;;;;;;;8360234;28;20614;-63
2022/11/22 01:16:15;;;;;;;4.27;0.80;;;;;;;;;;8358020;28;20933;-63
2022/11/22 01:20:15;;;;;;;1.58;0.90;;;;;;;;;;8355373;28;20931;-64
2022/11/22 01:24:16;;;;;;;1.25;0.93;;;;;;;;;;8356138;28;20399;-64
2022/11/22 01:28:16;;;;;;;2.92;1.00;;;;;;;;;;8339351;28;20032;-65
2022/11/22 01:32:16;;;;;;;2.70;1.30;;;;;;;;;;8352907;28;20099;-63
2022/11/22 01:36:17;;;;;;;4.53;1.13;;;;;;;;;;8353323;28;20603;-64
2022/11/22 01:40:17;;;;;;;1.73;0.95;;;;;;;;;;8352699;28;20263;-64
2022/11/22 01:44:17;;;;;;;3.08;1.33;;;;;;;;;;8355580;28;20036;-63
2022/11/22 01:48:22;;;;;;;3.47;1.30;;;;;;;;;;8337651;28;20372;-64
2022/11/22 01:52:24;;;;;;;2.63;1.50;;;;;;;;;;8327850;28;20126;-64
2022/11/22 01:56:26;;;;;;;3.90;1.52;;;;;;;;;;8326075;28;20048;-64
2022/11/22 02:00:26;;;;;;;5.85;1.33;;;;;;;;;;8327324;28;20043;-63
2022/11/22 02:04:28;;;;;;;2.43;1.20;;;;;;;;;;8351692;28;20042;-63
2022/11/22 02:08:28;;;;;;;5.95;1.88;;;;;;;;;;8353499;28;20266;-64
2022/11/22 02:12:30;;;;;;;3.20;1.30;;;;;;;;;;8351519;28;20036;-63
2022/11/22 02:16:33;;;;;;;2.70;1.30;;;;;;;;;;8352131;28;20036;-65
2022/11/22 02:20:33;;;;;;;4.07;1.33;;;;;;;;;;8354128;28;20017;-64
2022/11/22 02:24:41;;;;;;;3.35;1.50;;;;;;;;;;8353430;28;20123;-63
2022/11/22 02:28:41;;;;;;;4.22;1.27;;;;;;;;;;8352997;28;20025;-63
2022/11/22 02:32:42;;;;;;;4.45;1.73;;;;;;;;;;8351459;28;20047;-64
2022/11/22 02:36:45;;;;;;;3.53;1.88;;;;;;;;;;8349695;28;20032;-64
2022/11/22 02:40:51;;;;;;;4.83;1.53;;;;;;;;;;8350055;28;20124;-64
2022/11/22 02:44:52;;;;;;;4.78;1.38;;;;;;;;;;8353029;28;20796;-64
2022/11/22 02:48:52;;;;;;;15.00;1.90;;;;;;;;;;8357295;28;20065;-63
2022/11/22 02:52:52;;;;;;;5.80;1.92;;;;;;;;;;8353722;28;20095;-64
2022/11/22 02:56:52;;;;;;;7.30;2.22;;;;;;;;;;8351162;28;20024;-63
2022/11/22 03:00:52;;;;;;;8.27;1.90;;;;;;;;;;8360210;28;20032;-63
2022/11/22 03:04:53;;;;;;;14.02;2.40;;;;;;;;;;8350785;28;20036;-65
2022/11/22 03:08:53;;;;;;;14.55;2.22;;;;;;;;;;8348284;28;20056;-63
2022/11/22 03:12:53;;;;;;;11.53;2.37;;;;;;;;;;8351473;28;20033;-63
2022/11/22 03:16:53;;;;;;;11.32;2.70;;;;;;;;;;8351459;28;20270;-63
2022/11/22 03:20:54;;;;;;;11.27;2.13;;;;;;;;;;8347346;28;20413;-63
2022/11/22 03:24:54;;;;;;;9.15;2.50;;;;;;;;;;8351147;28;20036;-63
2022/11/22 03:28:54;;;;;;;10.32;2.40;;;;;;;;;;8350210;28;20029;-63
2022/11/22 03:32:54;;;;;;;9.55;2.00;;;;;;;;;;8350163;28;20086;-64
2022/11/22 03:36:54;;;;;;;6.37;2.43;;;;;;;;;;8350020;28;20077;-63
2022/11/22 03:40:55;;;;;;;12.18;3.05;;;;;;;;;;8353253;28;20365;-64
2022/11/22 03:44:55;;;;;;;14.73;2.50;;;;;;;;;;8352079;28;20020;-63
2022/11/22 03:48:55;;;;;;;10.82;2.10;;;;;;;;;;8334713;28;20032;-64
2022/11/22 03:52:55;;;;;;;19.00;2.40;;;;;;;;;;8351716;28;20033;-64
2022/11/22 03:56:55;;;;;;;9.38;2.10;;;;;;;;;;8350233;28;20830;-63
2022/11/22 04:00:56;;;;;;;10.57;2.33;;;;;;;;;;8349828;28;20035;-63
2022/11/22 04:04:56;;;;;;;14.25;2.33;;;;;;;;;;8350478;28;20028;-63
2022/11/22 04:08:56;;;;;;;11.55;2.20;;;;;;;;;;8356725;28;20548;-64
2022/11/22 04:12:57;;;;;;;10.83;2.67;;;;;;;;;;8349742;28;20025;-64
2022/11/22 04:16:59;;;;;;;16.85;2.90;;;;;;;;;;8347265;28;20267;-63
2022/11/22 04:25:18;;;;;;;14.95;2.55;;;;;;;;;;8352430;28;20032;-64
2022/11/22 04:29:19;;;;;;;19.35;2.85;;;;;;;;;;8308103;28;1317444;-63
2022/11/22 04:33:19;;;;;;;10.80;2.80;;;;;;;;;;8353549;28;20034;-63
2022/11/22 04:37:19;;;;;;;19.55;2.58;;;;;;;;;;8350699;28;20020;-63
2022/11/22 04:41:20;;;;;;;11.05;2.70;;;;;;;;;;8350116;28;20754;-63
2022/11/22 04:45:20;;;;;;;10.40;2.00;;;;;;;;;;8348967;28;20094;-64
2022/11/22 04:49:20;;;;;;;12.15;2.38;;;;;;;;;;8352236;28;20016;-64
2022/11/22 04:53:20;;;;;;;15.68;3.60;;;;;;;;;;8353113;28;20071;-64
2022/11/22 04:57:21;;;;;;;9.45;2.00;;;;;;;;;;8349746;28;20112;-64
2022/11/22 05:01:21;;;;;;;10.85;2.75;;;;;;;;;;8349144;28;20029;-63
2022/11/22 05:05:22;;;;;;;8.52;1.80;;;;;;;;;;8351443;28;20009;-64
2022/11/22 05:09:22;;;;;;;11.90;2.15;;;;;;;;;;8351074;28;20028;-64
2022/11/22 05:13:23;;;;;;;8.05;1.92;;;;;;;;;;8347762;28;20127;-64
2022/11/22 05:17:24;;;;;;;12.20;2.40;;;;;;;;;;8353802;28;20041;-65
2022/11/22 05:21:28;;;;;;;8.30;2.63;;;;;;;;;;8354399;28;20036;-63
2022/11/22 05:25:28;;;;;;;9.60;2.47;;;;;;;;;;8356327;28;20445;-64
2022/11/22 05:29:28;;;;;;;12.35;1.90;;;;;;;;;;8358420;28;20026;-63
2022/11/22 05:33:28;;;;;;;18.40;2.80;;;;;;;;;;8360296;28;20037;-63
2022/11/22 05:37:28;;;;;;;8.95;2.38;;;;;;;;;;8361035;28;20094;-63
2022/11/22 05:41:29;;;;;;;16.08;2.30;;;;;;;;;;8363029;28;20501;-64
2022/11/22 05:45:29;;;;;;;12.60;2.30;;;;;;;;;;8361102;28;20032;-64
2022/11/22 05:49:29;;;;;;;8.40;2.00;;;;;;;;;;8361053;28;20031;-63
2022/11/22 05:53:29;;;;;;;6.85;1.45;;;;;;;;;;8360020;28;20144;-65
2022/11/22 05:57:31;;;;;;;11.18;2.10;;;;;;;;;;8361217;28;20139;-63
2022/11/22 06:01:31;;;;;;;11.32;1.70;;;;;;;;;;8359870;28;20132;-63
2022/11/22 06:05:31;;;;;;;11.73;2.10;;;;;;;;;;8359805;28;20056;-63
2022/11/22 06:09:32;;;;;;;8.73;1.83;;;;;;;;;;8359393;28;20255;-64
2022/11/22 06:13:33;;;;;;;7.43;1.65;;;;;;;;;;8364899;28;20151;-63
2022/11/22 06:17:34;;;;;;;8.63;2.05;;;;;;;;;;8360185;28;20372;-64
2022/11/22 06:21:34;;;;;;;6.78;1.70;;;;;;;;;;8360063;28;20013;-63
2022/11/22 06:25:34;;;;;;;13.32;2.28;;;;;;;;;;8360446;28;20028;-64
2022/11/22 06:29:34;;;;;;;8.20;1.85;;;;;;;;;;8357796;28;20016;-65
2022/11/22 06:33:34;;;;;;;12.95;1.65;;;;;;;;;;8356508;28;20079;-63
2022/11/22 06:37:35;;;;;;;8.68;1.90;;;;;;;;;;8355766;28;20135;-63
2022/11/22 06:41:35;;;;;;;11.65;1.90;;;;;;;;;;8356958;28;20047;-63
2022/11/22 06:45:36;;;;;;;8.52;2.00;;;;;;;;;;8357750;28;20024;-63
2022/11/22 06:49:36;;;;;;;7.20;1.95;;;;;;;;;;8357039;28;20508;-63
2022/11/22 06:53:37;;;;;;;14.65;2.45;;;;;;;;;;8355587;28;20036;-64
2022/11/22 06:57:37;;;;;;;10.10;1.60;;;;;;;;;;8357914;28;20139;-63
2022/11/22 07:01:37;;;;;;;10.45;2.05;;;;;;;;;;8357327;28;20040;-63
2022/11/22 07:05:38;;;;;;;8.20;1.77;;;;;;;;;;8356105;28;20270;-64
2022/11/22 07:09:38;;;;;;;8.43;1.98;;;;;;;;;;8358179;28;20265;-64
2022/11/22 07:13:39;;;;;;;5.07;1.43;;;;;;;;;;8356945;28;20032;-64
2022/11/22 07:17:39;;;;;;;5.55;1.63;;;;;;;;;;8354499;28;20350;-63
2022/11/22 07:21:39;;;;;;;7.03;1.42;;;;;;;;;;8355881;28;20028;-65
2022/11/22 07:25:43;;;;;;;8.75;1.50;;;;;;;;;;8356457;28;20304;-64
2022/11/22 07:29:43;;;;;;;7.45;1.33;;;;;;;;;;8358519;28;20055;-64
2022/11/22 07:33:44;;;;;;;6.82;1.92;;;;;;;;;;8354488;28;20049;-64
2022/11/22 07:37:45;;;;;;;4.80;1.15;;;;;;;;;;8357261;28;20660;-64
2022/11/22 07:41:45;;;;;;;4.18;1.33;;;;;;;;;;8358118;28;20024;-64
2022/11/22 07:45:45;;;;;;;6.35;1.48;;;;;;;;;;8354218;28;20032;-68
2022/11/22 07:49:46;;;;;;;4.55;2.25;;;;;;;;;;8357441;28;20078;-64
2022/11/22 07:53:46;;;;;;;4.90;1.52;;;;;;;;;;8356112;28;20024;-63
2022/11/22 07:57:46;;;;;;;7.82;2.05;;;;;;;;;;8357299;28;20020;-64
2022/11/22 08:01:46;;;;;;;8.13;1.63;;;;;;;;;;8356882;28;20083;-64
2022/11/22 08:05:46;;;;;;;5.03;1.60;;;;;;;;;;8355434;28;20027;-64
2022/11/22 08:09:46;;;;;;;9.18;1.65;;;;;;;;;;8356220;28;20063;-63
2022/11/22 08:13:47;;;;;;;6.75;1.77;;;;;;;;;;8354395;28;20053;-63
2022/11/22 08:17:47;;;;;;;4.55;1.45;;;;;;;;;;8354208;28;20174;-69
2022/11/22 08:21:47;;;;;;;6.93;1.50;;;;;;;;;;8356615;28;20027;-64
2022/11/22 08:25:48;;;;;;;5.65;1.38;;;;;;;;;;8354787;28;20020;-64
2022/11/22 08:29:48;;;;;;;11.90;1.30;;;;;;;;;;8354322;28;20460;-63
2022/11/22 08:33:51;;;;;;;8.43;1.70;;;;;;;;;;8353034;28;20032;-63
2022/11/22 08:37:54;;;;;;;4.63;1.35;;;;;;;;;;8352289;28;20079;-64
2022/11/22 08:41:54;;;;;;;6.07;1.67;;;;;;;;;;8351967;28;20027;-63
2022/11/22 08:45:56;;;;;;;8.65;1.80;;;;;;;;;;8353341;28;20033;-63
2022/11/22 08:49:56;;;;;;;5.55;2.03;;;;;;;;;;8350454;28;20044;-67
2022/11/22 08:53:56;;;;;;;5.07;1.58;;;;;;;;;;8353490;28;20029;-64
2022/11/22 08:57:57;;;;;;;5.45;1.83;;;;;;;;;;8351311;28;20518;-63
2022/11/22 09:01:57;;;;;;;8.95;1.92;;;;;;;;;;8353869;28;20928;-64
2022/11/22 09:06:01;;;;;;;4.57;1.52;;;;;;;;;;8356726;28;20511;-64
2022/11/22 09:10:03;;;;;;;5.85;1.50;;;;;;;;;;8359332;28;20499;-63
2022/11/22 09:14:03;;;;;;;7.55;1.75;;;;;;;;;;8360226;28;20649;-64
2022/11/22 09:18:03;;;;;;;7.85;1.50;;;;;;;;;;8357952;28;20028;-63
2022/11/22 09:22:03;;;;;;;9.80;1.23;;;;;;;;;;8337998;28;20020;-64
2022/11/22 09:26:05;;;;;;;7.68;1.58;;;;;;;;;;8358071;28;20379;-64
2022/11/22 09:30:06;;;;;;;8.30;1.75;;;;;;;;;;8357626;28;20036;-64
2022/11/22 09:34:06;;;;;;;8.00;1.50;;;;;;;;;;8356829;28;20575;-67
2022/11/22 09:38:07;;;;;;;5.90;1.42;;;;;;;;;;8360605;28;20024;-62
2022/11/22 09:42:12;;;;;;;10.55;1.70;;;;;;;;;;8360012;28;20028;-61
2022/11/22 09:46:22;;;;;;;7.82;1.90;;;;;;;;;;8358146;28;20307;-62
2022/11/22 09:50:39;;;;;;;9.02;1.67;;;;;;;;;;8359624;28;20039;-63
2022/11/22 09:54:42;;;;;;;11.05;1.50;;;;;;;;;;8358452;28;20056;-63
2022/11/22 09:58:51;;;;;;;9.18;1.75;;;;;;;;;;8339011;28;20032;-63
2022/11/22 10:02:55;;;;;;;5.32;1.58;;;;;;;;;;8359174;28;20037;-63
2022/11/22 10:06:58;;;;;;;5.78;1.48;;;;;;;;;;8358060;28;20020;-63
2022/11/22 10:10:59;;;;;;;6.53;1.25;;;;;;;;;;8357526;28;20657;-63
2022/11/22 10:15:03;;;;;;;4.80;1.02;;;;;;;;;;8359136;28;20493;-63
2022/11/22 10:19:03;;;;;;;;;;;;;;;;;;8356990;28;20198;-63
2022/11/22 10:23:06;;;;;;;3.97;1.30;;;;;;;;;;8358980;28;19912;-62
2022/11/22 10:27:14;;;;;;;6.88;1.25;;;;;;;;;;8358154;28;20082;-63
2022/11/22 10:31:21;;;;;;;5.10;0.90;;;;;;;;;;8358286;28;20653;-62
2022/11/22 10:35:33;;;;;;;4.00;1.00;;;;;;;;;;8358324;28;20024;-63
2022/11/22 10:39:49;;;;;;;6.05;1.27;;;;;;;;;;8356298;28;20059;-63
2022/11/22 10:43:49;;;;;;;2.88;0.80;;;;;;;;;;8355079;28;20035;-64
2022/11/22 10:47:55;;;;;;;4.35;1.20;;;;;;;;;;8358051;28;20082;-63
2022/11/22 10:51:59;;;;;;;3.38;0.93;;;;;;;;;;8356630;28;20113;-62
2022/11/22 10:56:18;;;;;;;3.63;1.10;;;;;;;;;;8358587;28;20099;-62
2022/11/22 11:00:19;;;;;;;4.57;1.40;;;;;;;;;;8326274;28;20100;-63
2022/11/22 11:04:20;;;;;;;3.92;1.02;;;;;;;;;;8354234;28;20025;-62
2022/11/22 11:08:29;;;;;;;4.57;1.10;;;;;;;;;;8357791;28;20043;-62
2022/11/22 11:12:38;;;;;;;3.53;0.90;;;;;;;;;;8358194;28;20020;-62
2022/11/22 11:16:39;;;;;;;5.97;1.40;;;;;;;;;;8355441;28;20036;-62
2022/11/22 11:20:41;;;;;;;6.28;1.60;;;;;;;;;;8360314;28;20032;-62
2022/11/22 11:24:41;;;;;;;7.15;1.33;;;;;;;;;;8356883;28;20115;-63
2022/11/22 11:28:42;;;;;;;6.30;1.60;;;;;;;;;;8357284;28;20117;-63
2022/11/22 11:32:50;;;;;;;5.93;1.40;;;;;;;;;;8355978;28;20131;-68
2022/11/22 11:36:52;;;;;;;3.75;1.17;;;;;;;;;;8358282;28;20107;-63
2022/11/22 11:40:53;;;;;;;7.43;1.63;;;;;;;;;;8358704;28;20024;-63
2022/11/22 11:44:53;;;;;;;4.97;2.00;;;;;;;;;;8352675;28;20024;-65
2022/11/22 11:48:54;;;;;;;7.03;2.22;;;;;;;;;;8354371;28;20044;-63
2022/11/22 11:52:56;;;;;;;6.63;1.83;;;;;;;;;;8355636;28;20024;-64
2022/11/22 11:56:57;;;;;;;5.93;2.25;;;;;;;;;;8355568;28;20024;-62
2022/11/22 12:00:57;;;;;;;5.28;2.50;;;;;;;;;;8356533;28;20032;-63
2022/11/22 12:04:57;;;;;;;2.70;1.40;;;;;;;;;;8352034;28;20078;-63
2022/11/22 12:08:58;;;;;;;7.18;1.35;;;;;;;;;;8355248;28;20024;-63
2022/11/22 12:13:02;;;;;;;5.60;1.48;;;;;;;;;;8354279;28;20137;-62
2022/11/22 12:17:06;;;;;;;5.40;1.88;;;;;;;;;;8354832;28;20097;-63
2022/11/22 12:21:06;;;;;;;;;;;;;;;;;;8355313;28;20012;-62
2022/11/22 12:25:12;;;;;;;5.15;1.63;;;;;;;;;;8357050;28;20799;-62
2022/11/22 12:29:14;;;;;;;5.35;2.05;;;;;;;;;;8354418;28;20438;-62
2022/11/22 12:33:24;;;;;;;5.40;1.70;;;;;;;;;;8353358;28;20033;-62
2022/11/22 12:37:39;;;;;;;6.60;1.67;;;;;;;;;;8355691;28;20497;-62
2022/11/22 12:41:41;;;;;;;6.43;2.30;;;;;;;;;;8360406;28;20028;-62
2022/11/22 12:45:42;;;;;;;4.70;2.35;;;;;;;;;;8359148;28;20578;-62
2022/11/22 12:49:47;;;;;;;6.70;2.28;;;;;;;;;;8361031;28;20112;-62
2022/11/22 12:53:48;;;;;;;6.78;1.92;;;;;;;;;;8363248;28;20552;-63
2022/11/22 12:57:51;;;;;;;6.82;1.70;;;;;;;;;;8359301;28;20484;-62
2022/11/22 13:01:57;;;;;;;4.65;1.48;;;;;;;;;;8357782;28;20047;-62
2022/11/22 13:05:58;;;;;;;9.75;2.72;;;;;;;;;;8362239;28;20027;-62
2022/11/22 13:10:02;;;;;;;8.40;4.22;;;;;;;;;;8361072;28;20024;-62
2022/11/22 13:14:05;;;;;;;7.85;3.45;;;;;;;;;;8359709;28;20028;-63
2022/11/22 13:18:09;;;;;;;6.80;2.15;;;;;;;;;;8356733;28;20033;-62
2022/11/22 13:22:18;;;;;;;5.95;1.90;;;;;;;;;;8356355;28;20069;-62
2022/11/22 13:26:39;;;;;;;8.48;3.47;;;;;;;;;;8356516;28;20503;-62
2022/11/22 13:30:39;;;;;;;6.88;2.78;;;;;;;;;;8356613;28;20047;-63
2022/11/22 13:35:18;;;;;;;6.75;2.53;;;;;;;;;;8358533;28;20075;-62
2022/11/22 13:39:20;;;;;;;4.75;2.30;;;;;;;;;;8139445;28;20032;-63
2022/11/22 13:43:21;;;;;;;34.90;15.70;;;;;;;;;;8229077;28;20072;-62
2022/11/22 13:47:22;;;;;;;10.25;4.32;;;;;;;;;;8356140;28;20056;-62
2022/11/22 13:51:42;;;;;;;11.95;4.70;;;;;;;;;;8357424;28;20731;-63
2022/11/22 13:55:42;;;;;;;13.82;5.88;;;;;;;;;;8359111;28;20047;-62
2022/11/22 13:59:42;;;;;;;9.00;4.20;;;;;;;;;;8360002;28;20033;-62
2022/11/22 14:03:42;;;;;;;6.20;2.55;;;;;;;;;;8354620;28;20110;-62
2022/11/22 14:07:43;;;;;;;9.88;4.28;;;;;;;;;;8354231;28;20913;-62
2022/11/22 14:11:50;;;;;;;6.97;2.33;;;;;;;;;;8358630;28;20016;-62
2022/11/22 14:16:09;;;;;;;3.30;1.90;;;;;;;;;;8358423;28;20041;-62
2022/11/22 14:20:18;;;;;;;9.90;5.70;;;;;;;;;;8354159;28;20052;-62
2022/11/22 14:24:28;;;;;;;31.13;17.08;;;;;;;;;;8352358;28;20024;-62
2022/11/22 14:28:43;;;;;;;38.17;19.60;;;;;;;;;;8354353;28;20067;-62
2022/11/22 14:32:49;;;;;;;29.67;12.50;;;;;;;;;;8348967;28;20941;-63
2022/11/22 14:37:09;;;;;;;29.75;13.77;;;;;;;;;;8354944;28;20017;-62
2022/11/22 14:41:27;;;;;;;15.05;7.22;;;;;;;;;;8354393;28;20019;-62
2022/11/22 14:45:46;;;;;;;15.88;7.90;;;;;;;;;;8349977;28;20036;-62
2022/11/22 14:49:47;;;;;;;11.93;5.88;;;;;;;;;;8353773;28;20012;-62
2022/11/22 14:53:53;;;;;;;10.55;4.90;;;;;;;;;;8350855;28;20032;-63
2022/11/22 14:57:58;;;;;;;9.93;4.20;;;;;;;;;;8353865;28;20023;-63
2022/11/22 15:02:04;;;;;;;8.55;4.45;;;;;;;;;;8351048;28;20063;-63
2022/11/22 15:06:11;;;;;;;14.02;6.00;;;;;;;;;;8351751;28;20655;-62
2022/11/22 15:10:21;;;;;;;13.30;4.22;;;;;;;;;;8350990;28;20024;-63
2022/11/22 15:14:30;;;;;;;27.55;10.68;;;;;;;;;;8347661;28;20468;-63
2022/11/22 15:18:32;;;;;;;11.75;5.47;;;;;;;;;;8349234;28;20036;-62
2022/11/22 15:22:32;;;;;;;8.38;4.55;;;;;;;;;;8348639;28;20060;-62
2022/11/22 15:26:33;;;;;;;6.72;4.50;;;;;;;;;;8347567;28;20059;-62
2022/11/22 15:30:34;;;;;;;37.83;22.65;;;;;;;;;;8343541;28;20055;-62
2022/11/22 15:34:35;;;;;;;15.15;8.57;;;;;;;;;;8350849;28;20028;-62
2022/11/22 15:38:39;;;;;;;21.10;11.68;;;;;;;;;;8351421;28;20024;-63
2022/11/22 15:42:48;;;;;;;22.63;11.45;;;;;;;;;;8351116;28;20059;-62
2022/11/22 15:46:48;;;;;;;16.42;10.02;;;;;;;;;;8346972;28;20061;-63
2022/11/22 15:51:07;;;;;;;10.30;5.93;;;;;;;;;;8329883;28;20218;-62
2022/11/22 15:55:08;;;;;;;9.90;5.22;;;;;;;;;;8350333;28;20117;-63
2022/11/22 15:59:10;;;;;;;17.30;8.85;;;;;;;;;;8349130;28;20053;-63
2022/11/22 16:03:18;;;;;;;10.27;3.63;;;;;;;;;;8349943;28;20094;-62
2022/11/22 16:07:30;;;;;;;8.10;4.63;;;;;;;;;;8351535;28;20062;-62
2022/11/22 16:11:35;;;;;;;10.23;6.18;;;;;;;;;;8350085;28;20020;-63
2022/11/22 16:15:35;;;;;;;6.70;3.75;;;;;;;;;;8323755;28;20050;-63
2022/11/22 16:19:36;;;;;;;4.25;2.38;;;;;;;;;;8329238;28;20596;-62
2022/11/22 16:23:44;;;;;;;2.92;2.67;;;;;;;;;;8349761;28;20021;-62
2022/11/22 16:27:47;;;;;;;4.32;2.40;;;;;;;;;;8349368;28;20055;-62
2022/11/22 16:31:48;;;;;;;2.15;1.85;;;;;;;;;;8347820;28;20516;-62
2022/11/22 16:35:53;;;;;;;2.50;1.83;;;;;;;;;;8347724;28;20485;-63
2022/11/22 16:39:53;;;;;;;1.95;1.75;;;;;;;;;;8353075;28;20020;-62
2022/11/22 16:44:13;;;;;;;5.18;2.17;;;;;;;;;;8348778;28;20036;-62
2022/11/22 16:48:15;;;;;;;2.95;1.35;;;;;;;;;;8347659;28;20614;-63
2022/11/22 16:52:16;;;;;;;2.40;1.30;;;;;;;;;;8350052;28;20147;-62
2022/11/22 16:56:20;;;;;;;2.70;1.42;;;;;;;;;;8351700;28;20012;-63
2022/11/22 17:00:20;;;;;;;1.80;1.60;;;;;;;;;;8348550;28;20024;-62
2022/11/22 17:04:22;;;;;;;1.92;1.27;;;;;;;;;;8349119;28;20035;-62
2022/11/22 17:08:22;;;;;;;1.80;1.17;;;;;;;;;;8354353;28;20029;-62
2022/11/22 17:12:23;;;;;;;3.20;1.63;;;;;;;;;;8351901;28;20496;-63
2022/11/22 17:16:23;;;;;;;3.60;1.52;;;;;;;;;;8350337;28;20040;-62
2022/11/22 17:20:24;;;;;;;3.50;1.65;;;;;;;;;;8351234;28;20505;-62
2022/11/22 17:24:24;;;;;;;2.55;1.50;;;;;;;;;;8351186;28;20086;-62
2022/11/22 17:28:24;;;;;;;1.17;1.00;;;;;;;;;;8357307;28;20027;-63
2022/11/22 17:32:24;;;;;;;6.22;4.72;;;;;;;;;;8354892;28;20766;-63
2022/11/22 17:36:27;;;;;;;2.83;2.00;;;;;;;;;;8357949;28;20016;-62
2022/11/22 17:40:28;;;;;;;2.65;1.42;;;;;;;;;;8356264;28;20282;-62
2022/11/22 17:44:28;;;;;;;2.72;2.10;;;;;;;;;;8357120;28;20024;-62
2022/11/22 17:48:28;;;;;;;1.88;1.58;;;;;;;;;;8354125;28;20043;-62
2022/11/22 17:52:28;;;;;;;1.10;1.00;;;;;;;;;;8355156;28;20028;-63
2022/11/22 17:56:31;;;;;;;2.65;1.00;;;;;;;;;;8353528;28;20032;-62
2022/11/22 18:00:31;;;;;;;3.75;0.90;;;;;;;;;;8352462;28;20127;-63
2022/11/22 18:04:31;;;;;;;5.53;1.45;;;;;;;;;;8353472;28;20424;-63
2022/11/22 18:08:32;;;;;;;2.80;1.23;;;;;;;;;;8351254;28;20954;-62
2022/11/22 18:12:33;;;;;;;7.20;1.58;;;;;;;;;;8352135;28;20033;-62
2022/11/22 18:16:33;;;;;;;2.92;1.70;;;;;;;;;;8352969;28;20033;-63
2022/11/22 18:20:35;;;;;;;8.05;1.90;;;;;;;;;;8351263;28;20036;-62
2022/11/22 18:24:35;;;;;;;7.22;1.80;;;;;;;;;;8351904;28;20032;-62
2022/11/22 18:28:36;;;;;;;8.45;2.20;;;;;;;;;;8351531;28;20017;-62
2022/11/22 18:32:36;;;;;;;6.13;1.80;;;;;;;;;;8350903;28;20028;-63
2022/11/22 18:36:37;;;;;;;10.15;2.47;;;;;;;;;;8350840;28;20017;-62
2022/11/22 18:40:44;;;;;;;5.13;1.48;;;;;;;;;;8351680;28;20056;-62
2022/11/22 18:44:44;;;;;;;5.93;1.58;;;;;;;;;;8350856;28;20331;-62
2022/11/22 18:48:46;;;;;;;10.02;1.95;;;;;;;;;;8350819;28;20081;-62
2022/11/22 18:52:46;;;;;;;9.35;1.65;;;;;;;;;;8351048;28;20028;-63
2022/11/22 18:56:47;;;;;;;8.63;2.00;;;;;;;;;;8349645;28;20115;-62
2022/11/22 19:00:47;;;;;;;5.53;1.80;;;;;;;;;;8346029;28;20132;-62
2022/11/22 19:04:48;;;;;;;9.07;1.90;;;;;;;;;;8346340;28;20027;-62
2022/11/22 19:08:48;;;;;;;7.22;1.65;;;;;;;;;;8349806;28;20396;-62
2022/11/22 19:12:49;;;;;;;10.75;1.88;;;;;;;;;;8353275;28;20016;-62
2022/11/22 19:16:49;;;;;;;5.43;1.60;;;;;;;;;;8350134;28;20176;-64
2022/11/22 19:20:49;;;;;;;6.53;1.70;;;;;;;;;;8351499;28;20767;-62
2022/11/22 19:24:49;;;;;;;6.57;1.63;;;;;;;;;;8352082;28;20044;-62
2022/11/22 19:28:54;;;;;;;8.20;2.00;;;;;;;;;;8351341;28;20290;-62
2022/11/22 19:32:54;;;;;;;4.88;1.60;;;;;;;;;;8349996;28;20033;-62
2022/11/22 19:36:55;;;;;;;5.13;1.85;;;;;;;;;;8350062;28;20078;-63
2022/11/22 19:40:55;;;;;;;7.38;1.88;;;;;;;;;;8352057;28;20362;-63
2022/11/22 19:44:55;;;;;;;5.45;1.48;;;;;;;;;;8349697;28;20031;-62
2022/11/22 19:48:56;;;;;;;7.03;1.33;;;;;;;;;;8351425;28;20040;-62
2022/11/22 19:52:56;;;;;;;8.30;1.60;;;;;;;;;;8354177;28;20380;-63
2022/11/22 19:56:57;;;;;;;9.23;1.90;;;;;;;;;;8350518;28;20066;-62
2022/11/22 20:01:05;;;;;;;3.28;1.08;;;;;;;;;;8348351;28;20275;-63
2022/11/22 20:05:05;;;;;;;5.32;1.83;;;;;;;;;;8348931;28;20074;-63
2022/11/22 20:09:08;;;;;;;8.55;1.50;;;;;;;;;;8352009;28;20167;-63
2022/11/22 20:13:08;;;;;;;8.13;1.80;;;;;;;;;;8351569;28;20035;-62
2022/11/22 20:17:14;;;;;;;8.68;2.05;;;;;;;;;;8351027;28;20032;-62
2022/11/22 20:21:14;;;;;;;8.82;1.60;;;;;;;;;;8353516;28;20048;-62
2022/11/22 20:25:15;;;;;;;7.85;1.55;;;;;;;;;;8352153;28;20031;-62
2022/11/22 20:29:16;;;;;;;6.95;2.05;;;;;;;;;;8351018;28;20028;-63
2022/11/22 20:33:16;;;;;;;6.78;1.50;;;;;;;;;;8353212;28;20044;-62
2022/11/22 20:37:17;;;;;;;12.75;2.13;;;;;;;;;;8356130;28;20013;-62
2022/11/22 20:41:18;;;;;;;7.70;1.67;;;;;;;;;;8354960;28;20785;-62
2022/11/22 20:45:18;;;;;;;6.20;1.30;;;;;;;;;;8351138;28;20951;-62
2022/11/22 20:49:18;;;;;;;5.00;1.60;;;;;;;;;;8355445;28;20032;-62
2022/11/22 20:53:19;;;;;;;7.72;1.70;;;;;;;;;;8355039;28;20025;-62
2022/11/22 20:57:19;;;;;;;11.45;1.90;;;;;;;;;;8353420;28;20068;-63
2022/11/22 21:01:21;;;;;;;4.25;1.38;;;;;;;;;;8358533;28;20122;-62
2022/11/22 21:05:21;;;;;;;7.53;1.52;;;;;;;;;;8357290;28;20020;-63
2022/11/22 21:09:22;;;;;;;7.57;1.50;;;;;;;;;;8360078;28;20036;-63
2022/11/22 21:13:22;;;;;;;7.57;1.83;;;;;;;;;;8358836;28;20282;-62
2022/11/22 21:17:22;;;;;;;6.22;1.40;;;;;;;;;;8359084;28;20033;-62
2022/11/22 21:21:23;;;;;;;5.60;1.50;;;;;;;;;;8360446;28;20491;-63
2022/11/22 21:25:24;;;;;;;6.78;1.42;;;;;;;;;;8359779;28;20298;-62
2022/11/22 21:29:24;;;;;;;6.55;1.55;;;;;;;;;;8358797;28;20452;-63
2022/11/22 21:33:24;;;;;;;6.97;1.52;;;;;;;;;;8360014;28;20533;-62
2022/11/22 21:37:24;;;;;;;3.83;1.55;;;;;;;;;;8342287;28;20020;-63
2022/11/22 21:41:25;;;;;;;6.60;1.73;;;;;;;;;;8358168;28;20027;-62
2022/11/22 21:45:25;;;;;;;7.45;1.25;;;;;;;;;;8358450;28;20040;-63
2022/11/22 21:49:25;;;;;;;4.18;1.20;;;;;;;;;;8360386;28;20085;-62
2022/11/22 21:53:29;;;;;;;6.55;1.50;;;;;;;;;;8359201;28;20047;-62
2022/11/22 21:57:29;;;;;;;6.78;1.30;;;;;;;;;;8358956;28;20023;-66
2022/11/22 22:01:30;;;;;;;8.05;1.67;;;;;;;;;;8357018;28;20032;-62
2022/11/22 22:05:30;;;;;;;5.90;1.50;;;;;;;;;;8357687;28;20029;-62
2022/11/22 22:09:30;;;;;;;6.47;1.70;;;;;;;;;;8359828;28;20468;-62
2022/11/22 22:13:31;;;;;;;8.90;1.83;;;;;;;;;;8356052;28;21047;-62
2022/11/22 22:17:31;;;;;;;7.40;1.48;;;;;;;;;;8352492;28;20032;-62
2022/11/22 22:21:31;;;;;;;10.40;2.00;;;;;;;;;;8358388;28;20019;-63
2022/11/22 22:25:32;;;;;;;7.43;1.85;;;;;;;;;;8356461;28;20024;-62
2022/11/22 22:29:32;;;;;;;4.32;1.40;;;;;;;;;;8357339;28;20470;-62
2022/11/22 22:33:33;;;;;;;10.35;1.80;;;;;;;;;;8354436;28;20156;-62
2022/11/22 22:37:34;;;;;;;4.80;1.33;;;;;;;;;;8357279;28;20733;-63
2022/11/22 22:41:34;;;;;;;5.78;1.40;;;;;;;;;;8358184;28;20924;-62
2022/11/22 22:45:35;;;;;;;7.63;1.58;;;;;;;;;;8354170;28;20221;-63
2022/11/22 22:49:35;;;;;;;9.57;1.80;;;;;;;;;;8357222;28;20170;-63
2022/11/22 22:53:35;;;;;;;6.07;1.60;;;;;;;;;;8358193;28;20126;-62
2022/11/22 22:57:36;;;;;;;6.00;1.52;;;;;;;;;;8354118;28;20020;-62
2022/11/22 23:01:36;;;;;;;3.13;1.40;;;;;;;;;;8358145;28;20025;-62
2022/11/22 23:05:39;;;;;;;5.20;1.45;;;;;;;;;;8356759;28;20050;-62
2022/11/22 23:09:39;;;;;;;7.43;2.00;;;;;;;;;;8356488;28;20029;-62
2022/11/22 23:13:40;;;;;;;7.57;1.88;;;;;;;;;;8356664;28;20024;-63
2022/11/22 23:17:40;;;;;;;3.55;1.40;;;;;;;;;;8354560;28;20028;-63
2022/11/22 23:21:42;;;;;;;5.55;1.40;;;;;;;;;;8356602;28;20024;-62
2022/11/22 23:25:42;;;;;;;5.93;1.38;;;;;;;;;;8354914;28;20817;-63
2022/11/22 23:29:42;;;;;;;4.80;1.70;;;;;;;;;;8356288;28;20047;-62
2022/11/22 23:33:42;;;;;;;4.80;1.48;;;;;;;;;;8353515;28;20036;-62
2022/11/22 23:37:42;;;;;;;4.88;1.42;;;;;;;;;;8355925;28;20056;-62
2022/11/22 23:41:43;;;;;;;6.63;1.92;;;;;;;;;;8352259;28;20061;-63
2022/11/22 23:45:45;;;;;;;8.63;1.55;;;;;;;;;;8335973;28;20036;-62
2022/11/22 23:49:45;;;;;;;5.82;1.70;;;;;;;;;;8354191;28;20109;-62
2022/11/22 23:53:45;;;;;;;6.78;2.13;;;;;;;;;;8355658;28;20024;-62
2022/11/22 23:57:45;;;;;;;9.82;2.03;;;;;;;;;;8354354;28;20850;-62
